Time;durP1;ratioP1;P1;durP2;ratioP2;P2;SDS_P1;SDS_P2;PMS_P1;PMS_P2;Temp;Humidity;BMP_temperature;BMP_pressure;BME280_temperature;BME280_humidity;BME280_pressure;Samples;Min_cycle;Max_cycle;Signal;HPM_P1;HPM_P2
2022/02/05 00:00:35;;;;;;;0.98;0.60;;;4.50;6.90;;;;;;7364906;19;20055;-60
2022/02/05 00:03:18;;;;;;;1.42;0.90;;;4.50;7.30;;;;;;7365975;19;20031;-61
2022/02/05 00:05:53;;;;;;;1.63;0.90;;;4.50;7.40;;;;;;7360887;19;20048;-60
2022/02/05 00:08:46;;;;;;;1.80;0.88;;;4.50;6.50;;;;;;7385028;19;20455;-60
2022/02/05 00:11:34;;;;;;;0.98;0.60;;;4.40;7.20;;;;;;7362715;19;20002;-62
2022/02/05 00:39:16;;;;;;;3.70;0.95;;;4.10;7.80;;;;;;7359064;19;20021;-60
2022/02/05 00:41:52;;;;;;;3.63;1.20;;;3.90;7.30;;;;;;7384646;19;20332;-61
2022/02/05 00:44:22;;;;;;;3.20;1.02;;;3.80;7.70;;;;;;7385561;19;20014;-60
2022/02/05 00:46:52;;;;;;;2.08;1.10;;;3.70;8.20;;;;;;7357914;19;20019;-60
2022/02/05 00:49:24;;;;;;;2.42;1.17;;;3.70;9.20;;;;;;7360193;19;20386;-60
2022/02/05 00:52:00;;;;;;;3.13;1.20;;;3.60;8.80;;;;;;7364683;19;20006;-60
2022/02/05 00:54:30;;;;;;;1.95;0.95;;;3.50;9.70;;;;;;7362825;19;20015;-60
2022/02/05 00:59:42;;;;;;;2.20;1.30;;;3.40;10.60;;;;;;7379892;19;20018;-60
2022/02/05 01:02:12;;;;;;;4.60;1.67;;;3.30;11.50;;;;;;7363722;19;20748;-62
2022/02/05 01:04:44;;;;;;;3.20;1.45;;;3.20;10.70;;;;;;7363149;19;20010;-59
2022/02/05 01:07:14;;;;;;;1.63;1.17;;;3.30;9.70;;;;;;7361349;19;20017;-60
2022/02/05 01:09:47;;;;;;;4.65;1.48;;;3.20;9.80;;;;;;7358273;19;20007;-61
2022/02/05 01:12:18;;;;;;;3.25;1.20;;;3.20;9.20;;;;;;7365575;19;20041;-61
2022/02/05 01:14:52;;;;;;;2.17;1.02;;;3.10;7.80;;;;;;7362289;19;20014;-61
2022/02/05 01:17:29;;;;;;;4.90;1.40;;;3.20;7.80;;;;;;7378868;19;20018;-60
2022/02/05 01:20:25;;;;;;;1.20;1.08;;;3.00;7.70;;;;;;7358002;19;20018;-61
2022/02/05 01:22:57;;;;;;;2.80;1.15;;;3.00;6.30;;;;;;7364835;19;20019;-60
2022/02/05 01:25:33;;;;;;;4.53;1.38;;;2.90;6.60;;;;;;7362856;19;20383;-60
2022/02/05 01:28:09;;;;;;;5.18;2.03;;;2.90;7.40;;;;;;7359936;19;20021;-60
2022/02/05 01:30:43;;;;;;;5.70;1.38;;;2.80;6.40;;;;;;7361796;19;20014;-60
2022/02/05 01:33:30;;;;;;;4.03;1.35;;;2.80;6.60;;;;;;7365067;19;20094;-60
2022/02/05 01:36:20;;;;;;;3.03;1.50;;;2.80;6.20;;;;;;7355999;19;20046;-59
2022/02/05 01:52:47;;;;;;;5.70;1.67;;;2.60;7.40;;;;;;7364139;19;20003;-60
2022/02/05 01:55:31;;;;;;;4.10;1.42;;;2.60;7.80;;;;;;7363518;19;20077;-60
2022/02/05 01:58:13;;;;;;;2.25;1.48;;;2.50;9.10;;;;;;7357982;19;20014;-59
2022/02/05 02:06:16;;;;;;;5.03;1.23;;;2.50;8.70;;;;;;7363710;19;20010;-59
2022/02/05 02:11:42;;;;;;;3.88;1.60;;;2.40;9.80;;;;;;7370473;19;20502;-60
2022/02/05 02:19:48;;;;;;;3.67;1.42;;;2.30;9.70;;;;;;7364156;19;20007;-60
2022/02/05 02:22:27;;;;;;;2.65;1.48;;;2.30;10.30;;;;;;7371760;19;20099;-60
2022/02/05 02:25:05;;;;;;;2.78;1.30;;;2.30;10.20;;;;;;7367010;19;20066;-61
2022/02/05 02:27:42;;;;;;;2.88;1.80;;;2.30;9.90;;;;;;7364913;19;20382;-60
2022/02/05 02:30:17;;;;;;;8.25;1.88;;;2.20;10.10;;;;;;7364284;19;20018;-60
2022/02/05 02:32:52;;;;;;;4.13;1.90;;;2.30;10.80;;;;;;7374373;19;20023;-60
2022/02/05 02:35:26;;;;;;;5.22;1.85;;;2.30;10.90;;;;;;7387779;19;20017;-61
2022/02/05 02:38:03;;;;;;;9.55;2.60;;;2.20;10.90;;;;;;7363953;19;20020;-60
2022/02/05 02:40:40;;;;;;;2.40;1.77;;;2.30;10.90;;;;;;7362549;19;20018;-60
2022/02/05 02:43:16;;;;;;;5.22;2.58;;;2.20;11.00;;;;;;7366588;19;20029;-60
2022/02/05 02:45:46;;;;;;;6.47;2.70;;;2.20;10.80;;;;;;7363751;19;20136;-60
2022/02/05 02:48:17;;;;;;;3.70;2.30;;;2.10;11.50;;;;;;7363858;19;20078;-60
2022/02/05 02:56:32;;;;;;;4.90;2.40;;;2.10;11.80;;;;;;7364436;19;20385;-61
2022/02/05 02:59:07;;;;;;;8.57;2.70;;;2.20;12.10;;;;;;7362442;19;20019;-59
2022/02/05 03:01:42;;;;;;;6.13;2.90;;;2.10;11.60;;;;;;7366450;19;20087;-59
2022/02/05 03:04:11;;;;;;;;;;;2.10;11.90;;;;;;7370283;19;20017;-59
2022/02/05 03:06:41;;;;;;;6.47;2.78;;;2.10;11.80;;;;;;7362285;19;20331;-60
2022/02/05 03:09:14;;;;;;;4.18;2.38;;;2.00;11.60;;;;;;7364468;19;21011;-60
2022/02/05 03:11:43;;;;;;;6.20;2.83;;;2.00;12.10;;;;;;7390770;19;20392;-61
2022/02/05 03:14:13;;;;;;;10.52;2.70;;;2.00;11.90;;;;;;7363176;19;20062;-60
2022/02/05 03:16:48;;;;;;;7.85;2.90;;;1.90;12.40;;;;;;7361729;19;20014;-60
2022/02/05 03:19:18;;;;;;;5.60;2.35;;;1.90;13.20;;;;;;7366018;19;20485;-60
2022/02/05 03:21:48;;;;;;;6.25;2.85;;;1.80;14.10;;;;;;7367869;19;20485;-60
2022/02/05 03:24:20;;;;;;;5.97;3.00;;;1.90;14.10;;;;;;7366357;19;20006;-60
2022/02/05 03:26:50;;;;;;;8.15;3.33;;;1.80;14.10;;;;;;7364726;19;20010;-60
2022/02/05 03:29:20;;;;;;;7.03;3.60;;;1.90;14.10;;;;;;7382870;19;20014;-60
2022/02/05 03:31:50;;;;;;;8.15;2.63;;;1.90;14.70;;;;;;7366278;19;20082;-59
2022/02/05 03:34:20;;;;;;;8.77;3.10;;;1.80;14.10;;;;;;7369203;19;20872;-59
2022/02/05 03:36:50;;;;;;;4.25;2.70;;;1.80;15.30;;;;;;7360395;19;20007;-59
2022/02/05 03:39:22;;;;;;;5.88;3.03;;;1.80;15.10;;;;;;7361845;19;20085;-60
2022/02/05 03:41:53;;;;;;;8.88;3.53;;;1.70;15.50;;;;;;7369604;19;20070;-61
2022/02/05 03:44:22;;;;;;;7.38;2.97;;;1.70;16.30;;;;;;7386764;19;20054;-60
2022/02/05 03:46:54;;;;;;;5.35;3.25;;;1.70;16.30;;;;;;7360359;19;20499;-60
2022/02/05 03:49:25;;;;;;;8.85;3.58;;;1.60;16.60;;;;;;7362896;19;20023;-60
2022/02/05 03:51:55;;;;;;;7.15;3.10;;;1.70;16.80;;;;;;7367021;19;20027;-60
2022/02/05 03:54:30;;;;;;;8.38;3.20;;;1.70;17.00;;;;;;7366139;19;20093;-60
2022/02/05 03:57:00;;;;;;;8.30;3.10;;;1.70;17.50;;;;;;7363554;19;20014;-60
2022/02/05 03:59:30;;;;;;;9.70;4.00;;;1.70;16.70;;;;;;7380832;19;20011;-60
2022/02/05 04:02:01;;;;;;;5.38;3.35;;;1.70;16.60;;;;;;7365419;19;20007;-60
2022/02/05 04:04:31;;;;;;;6.15;3.50;;;1.70;16.80;;;;;;7368512;19;20021;-61
2022/02/05 04:07:01;;;;;;;9.65;3.83;;;1.70;16.70;;;;;;7361344;19;20328;-60
2022/02/05 04:09:40;;;;;;;9.98;3.83;;;1.60;16.80;;;;;;7351600;19;20020;-60
2022/02/05 04:17:37;;;;;;;5.93;3.67;;;1.70;17.20;;;;;;7380778;19;20006;-60
2022/02/05 04:20:08;;;;;;;8.70;3.90;;;1.80;17.00;;;;;;7362201;19;20014;-60
2022/02/05 04:22:38;;;;;;;8.63;3.42;;;1.80;17.20;;;;;;7365184;19;20019;-60
2022/02/05 04:25:12;;;;;;;7.47;3.65;;;1.90;17.30;;;;;;7364997;19;20007;-59
2022/02/05 04:27:42;;;;;;;;;;;2.00;17.00;;;;;;7361768;19;20007;-59
2022/02/05 04:30:13;;;;;;;5.88;3.00;;;2.00;16.40;;;;;;7359259;19;19928;-60
2022/02/05 04:32:43;;;;;;;8.07;3.10;;;2.10;16.00;;;;;;7386106;19;20053;-60
2022/02/05 04:35:13;;;;;;;9.75;3.65;;;2.20;16.20;;;;;;7365851;19;20002;-60
2022/02/05 04:37:49;;;;;;;4.35;2.88;;;2.30;15.70;;;;;;7359000;19;20125;-59
2022/02/05 04:40:27;;;;;;;9.00;3.40;;;2.40;14.40;;;;;;7360148;19;20011;-60
2022/02/05 04:43:15;;;;;;;6.97;2.88;;;2.40;14.40;;;;;;7366234;19;20459;-61
2022/02/05 04:46:15;;;;;;;6.82;2.92;;;2.40;14.10;;;;;;7360383;19;20018;-60
2022/02/05 04:54:44;;;;;;;6.97;2.60;;;2.40;14.40;;;;;;7364777;19;20381;-61
2022/02/05 05:00:18;;;;;;;9.02;2.42;;;2.50;13.60;;;;;;7357586;19;20352;-60
2022/02/05 05:06:01;;;;;;;5.38;2.33;;;2.60;13.40;;;;;;7359130;19;20453;-60
2022/02/05 05:08:41;;;;;;;6.82;2.65;;;2.60;13.60;;;;;;7362912;19;20006;-60
2022/02/05 05:19:37;;;;;;;10.43;2.92;;;2.80;12.50;;;;;;7360531;19;20406;-60
2022/02/05 05:22:07;;;;;;;7.57;3.45;;;2.80;13.10;;;;;;7363594;19;20474;-60
2022/02/05 05:24:37;;;;;;;5.50;3.00;;;2.60;14.60;;;;;;7364317;19;20061;-58
2022/02/05 05:27:07;;;;;;;10.48;2.95;;;2.60;14.80;;;;;;7359091;19;20022;-60
2022/02/05 05:29:39;;;;;;;9.27;3.30;;;2.60;15.20;;;;;;7377104;19;20028;-60
2022/02/05 05:32:10;;;;;;;5.05;3.00;;;2.60;16.30;;;;;;7364414;19;20526;-60
2022/02/05 05:34:40;;;;;;;6.18;2.88;;;2.70;16.40;;;;;;7364347;19;20002;-60
2022/02/05 05:37:10;;;;;;;7.00;2.95;;;2.70;16.50;;;;;;7359503;19;20022;-60
2022/02/05 05:39:43;;;;;;;7.05;2.88;;;2.70;15.00;;;;;;7370888;19;20522;-60
2022/02/05 05:42:18;;;;;;;4.72;2.90;;;2.80;14.10;;;;;;7379801;19;20105;-59
2022/02/05 05:45:16;;;;;;;5.05;2.60;;;2.70;13.40;;;;;;7397768;19;20534;-59
2022/02/05 05:47:55;;;;;;;6.07;3.08;;;2.70;13.00;;;;;;7371380;19;20017;-60
2022/02/05 05:50:58;;;;;;;12.07;3.00;;;2.80;12.80;;;;;;7374950;19;20026;-59
2022/02/05 05:53:29;;;;;;;4.55;2.60;;;2.80;12.00;;;;;;7377710;19;20373;-59
2022/02/05 05:56:02;;;;;;;8.88;3.00;;;2.80;11.60;;;;;;7370276;19;20025;-60
2022/02/05 05:58:33;;;;;;;5.85;3.10;;;2.80;11.70;;;;;;7374739;19;20031;-59
2022/02/05 06:01:08;;;;;;;5.75;2.72;;;2.90;11.20;;;;;;7374462;19;20014;-59
2022/02/05 06:03:38;;;;;;;4.32;2.58;;;2.90;11.20;;;;;;7375314;19;20565;-59
2022/02/05 06:06:07;;;;;;;5.88;3.60;;;2.90;10.90;;;;;;7372160;19;20027;-60
2022/02/05 06:08:37;;;;;;;6.10;2.95;;;2.90;10.30;;;;;;7397476;19;20018;-59
2022/02/05 06:11:07;;;;;;;5.40;2.70;;;2.90;10.60;;;;;;7370841;19;20051;-60
2022/02/05 06:13:37;;;;;;;5.82;2.80;;;2.90;11.20;;;;;;7373167;19;20006;-60
2022/02/05 06:16:16;;;;;;;7.32;3.17;;;2.90;11.30;;;;;;7371259;19;20026;-59
2022/02/05 06:18:46;;;;;;;7.70;3.22;;;2.90;11.30;;;;;;7374357;19;20498;-60
2022/02/05 06:21:16;;;;;;;6.47;2.85;;;2.90;11.80;;;;;;7372620;19;20015;-59
2022/02/05 06:23:46;;;;;;;5.13;3.03;;;2.90;11.40;;;;;;7399583;19;20023;-60
2022/02/05 06:26:16;;;;;;;8.13;3.10;;;2.90;11.50;;;;;;7369049;19;20022;-60
2022/02/05 06:28:46;;;;;;;5.85;3.47;;;3.00;11.70;;;;;;7373510;19;20090;-59
2022/02/05 06:31:19;;;;;;;9.45;3.58;;;3.00;11.30;;;;;;7373750;19;20014;-58
2022/02/05 06:33:49;;;;;;;8.20;4.57;;;3.00;10.90;;;;;;7375163;19;20010;-59
2022/02/05 06:36:19;;;;;;;5.95;3.05;;;3.00;11.40;;;;;;7371655;19;20013;-59
2022/02/05 06:38:49;;;;;;;7.78;3.17;;;3.10;11.40;;;;;;7396932;19;20011;-59
2022/02/05 06:41:19;;;;;;;10.15;3.97;;;3.00;10.70;;;;;;7371176;19;20125;-59
2022/02/05 06:43:49;;;;;;;10.65;4.60;;;3.00;11.30;;;;;;7375289;19;20470;-59
2022/02/05 06:46:21;;;;;;;12.90;5.00;;;3.00;11.30;;;;;;7372037;19;20017;-59
2022/02/05 06:48:51;;;;;;;11.85;5.47;;;3.00;11.50;;;;;;7369868;19;20010;-59
2022/02/05 06:51:21;;;;;;;10.60;4.32;;;2.90;11.30;;;;;;7365663;19;20010;-60
2022/02/05 06:53:51;;;;;;;10.50;4.63;;;2.90;11.60;;;;;;7390485;19;20027;-58
2022/02/05 06:56:20;;;;;;;5.18;3.30;;;3.00;11.30;;;;;;7361352;19;20092;-60
2022/02/05 06:58:51;;;;;;;6.40;3.40;;;3.10;10.20;;;;;;7363954;19;20542;-59
2022/02/05 07:01:24;;;;;;;5.97;2.95;;;3.00;10.30;;;;;;7367002;19;20015;-60
2022/02/05 07:03:54;;;;;;;6.82;3.55;;;3.00;10.80;;;;;;7365635;19;20010;-59
2022/02/05 07:06:24;;;;;;;7.35;2.90;;;3.10;10.90;;;;;;7362613;19;20082;-59
2022/02/05 07:08:55;;;;;;;10.15;3.97;;;3.00;10.00;;;;;;7366039;19;20014;-60
2022/02/05 07:11:25;;;;;;;4.03;2.78;;;3.00;9.80;;;;;;7383979;19;20010;-59
2022/02/05 07:13:56;;;;;;;5.53;3.05;;;3.10;10.10;;;;;;7366569;19;20013;-59
2022/02/05 07:16:33;;;;;;;6.50;2.85;;;3.20;10.70;;;;;;7362255;19;20026;-60
2022/02/05 07:19:20;;;;;;;7.07;2.63;;;3.10;10.30;;;;;;7362913;19;20011;-60
2022/02/05 07:21:52;;;;;;;8.27;2.95;;;3.20;10.50;;;;;;7365275;19;20015;-60
2022/02/05 07:24:39;;;;;;;6.95;2.80;;;3.20;11.00;;;;;;7368869;19;20105;-59
2022/02/05 07:29:54;;;;;;;5.53;2.85;;;3.30;10.10;;;;;;7363323;19;20014;-61
2022/02/05 07:32:26;;;;;;;5.70;2.58;;;3.40;10.00;;;;;;7389431;19;20033;-60
2022/02/05 07:34:56;;;;;;;5.07;2.55;;;3.40;8.70;;;;;;7367522;19;20066;-59
2022/02/05 07:37:26;;;;;;;4.55;2.60;;;3.40;9.40;;;;;;7361150;19;20010;-59
2022/02/05 07:39:56;;;;;;;5.68;2.75;;;3.40;9.40;;;;;;7361813;19;20010;-60
2022/02/05 07:42:26;;;;;;;6.80;2.95;;;3.40;9.10;;;;;;7365823;19;20018;-59
2022/02/05 07:44:56;;;;;;;5.70;2.88;;;3.50;9.00;;;;;;7364347;19;20396;-60
2022/02/05 07:47:33;;;;;;;5.28;2.42;;;3.40;8.90;;;;;;7383070;19;20038;-60
2022/02/05 07:50:03;;;;;;;10.25;5.22;;;3.50;8.80;;;;;;7360476;19;20074;-59
2022/02/05 07:52:33;;;;;;;6.50;2.88;;;3.50;9.30;;;;;;7364312;19;20466;-60
2022/02/05 07:55:03;;;;;;;7.15;2.55;;;3.60;8.60;;;;;;7367300;19;20109;-59
2022/02/05 07:57:32;;;;;;;4.97;2.58;;;3.60;8.20;;;;;;7359167;19;20014;-60
2022/02/05 08:00:02;;;;;;;6.95;2.42;;;3.70;8.80;;;;;;7359084;19;20033;-60
2022/02/05 08:02:35;;;;;;;4.95;2.55;;;3.70;8.10;;;;;;7388685;19;20015;-60
2022/02/05 08:05:05;;;;;;;8.35;2.63;;;3.80;8.20;;;;;;7365876;19;20122;-60
2022/02/05 08:07:35;;;;;;;4.78;2.25;;;3.80;7.20;;;;;;7356187;19;20049;-60
2022/02/05 08:10:07;;;;;;;5.93;2.50;;;3.80;7.60;;;;;;7362287;19;20002;-60
2022/02/05 08:12:41;;;;;;;5.18;2.83;;;3.90;7.30;;;;;;7366199;19;20014;-59
2022/02/05 08:15:12;;;;;;;5.05;2.67;;;4.00;7.60;;;;;;7364836;19;20014;-60
2022/02/05 08:17:44;;;;;;;4.88;2.72;;;4.00;7.10;;;;;;7379357;19;20676;-59
2022/02/05 08:20:14;;;;;;;3.40;2.10;;;4.10;6.70;;;;;;7359084;19;20108;-59
2022/02/05 08:22:44;;;;;;;5.63;2.83;;;4.00;6.30;;;;;;7363330;19;20015;-60
2022/02/05 08:25:14;;;;;;;5.32;2.38;;;4.10;6.00;;;;;;7366869;19;20138;-60
2022/02/05 08:27:44;;;;;;;7.05;2.95;;;4.20;6.30;;;;;;7360545;19;20017;-59
2022/02/05 08:30:15;;;;;;;5.80;2.60;;;4.20;6.00;;;;;;7359688;19;20391;-60
2022/02/05 08:32:48;;;;;;;7.38;2.90;;;4.20;5.40;;;;;;7387131;19;20021;-60
2022/02/05 08:35:19;;;;;;;3.90;2.13;;;4.20;5.10;;;;;;7366724;19;20476;-60
2022/02/05 08:37:50;;;;;;;6.57;2.60;;;4.20;4.90;;;;;;7357905;19;20006;-60
2022/02/05 08:40:19;;;;;;;34.83;18.13;;;4.30;5.20;;;;;;7361472;19;20013;-60
2022/02/05 08:42:49;;;;;;;6.70;2.60;;;4.30;5.40;;;;;;7365203;19;20002;-60
2022/02/05 08:45:19;;;;;;;5.45;2.08;;;4.30;4.90;;;;;;7364332;19;20010;-60
2022/02/05 08:47:53;;;;;;;6.78;2.63;;;4.50;5.00;;;;;;7382050;19;20025;-60
2022/02/05 08:50:26;;;;;;;7.38;2.88;;;4.70;5.10;;;;;;7360147;19;20014;-59
2022/02/05 08:52:56;;;;;;;5.43;3.00;;;4.80;4.40;;;;;;7362207;19;20038;-59
2022/02/05 08:55:28;;;;;;;8.88;3.00;;;5.00;3.50;;;;;;7363804;19;20010;-60
2022/02/05 08:58:01;;;;;;;5.88;2.42;;;5.10;2.30;;;;;;7359619;19;20103;-61
2022/02/05 09:00:31;;;;;;;6.55;2.83;;;5.00;2.10;;;;;;7359277;19;20465;-61
2022/02/05 09:03:10;;;;;;;3.70;2.47;;;5.10;2.30;;;;;;7365042;19;20014;-60
2022/02/05 09:05:44;;;;;;;7.25;2.72;;;5.20;1.70;;;;;;7383590;19;20478;-61
2022/02/05 09:08:23;;;;;;;;;;;5.20;1.70;;;;;;7361145;19;20030;-60
2022/02/05 09:11:04;;;;;;;6.45;2.33;;;5.30;1.00;;;;;;7359618;19;20377;-59
2022/02/05 09:16:23;;;;;;;8.15;2.13;;;5.30;1.20;;;;;;7359304;19;20021;-61
2022/02/05 09:18:56;;;;;;;4.78;2.25;;;5.40;1.00;;;;;;7359644;19;20077;-60
2022/02/05 09:21:30;;;;;;;4.07;2.03;;;5.50;1.00;;;;;;7360498;19;20416;-60
2022/02/05 09:24:02;;;;;;;3.17;1.65;;;5.40;1.00;;;;;;7361513;19;20006;-61
2022/02/05 09:26:33;;;;;;;4.70;2.20;;;5.60;1.00;;;;;;7377347;19;20508;-60
2022/02/05 09:29:10;;;;;;;4.80;1.90;;;5.90;1.00;;;;;;7359676;19;20535;-59
2022/02/05 09:31:40;;;;;;;6.30;1.75;;;5.90;1.00;;;;;;7361061;19;20094;-60
2022/02/05 09:34:12;;;;;;;10.68;2.00;;;6.00;1.00;;;;;;7360913;19;21108;-59
2022/02/05 09:36:43;;;;;;;6.03;2.00;;;6.00;1.00;;;;;;7356651;19;20483;-60
2022/02/05 09:39:13;;;;;;;5.57;1.90;;;6.10;1.00;;;;;;7353290;19;21553;-60
2022/02/05 09:41:44;;;;;;;8.00;2.15;;;6.30;1.00;;;;;;7375485;19;20335;-60
2022/02/05 09:44:16;;;;;;;6.15;1.55;;;6.30;1.00;;;;;;7359548;19;20036;-60
2022/02/05 09:46:46;;;;;;;4.90;2.20;;;6.40;1.00;;;;;;7356740;19;20015;-60
2022/02/05 09:49:21;;;;;;;7.60;2.45;;;6.30;1.00;;;;;;7355985;19;20060;-60
2022/02/05 09:52:06;;;;;;;7.57;1.90;;;6.30;1.00;;;;;;7362581;19;20013;-60
2022/02/05 09:54:37;;;;;;;9.40;2.00;;;6.00;1.00;;;;;;7363076;19;20536;-60
2022/02/05 09:57:08;;;;;;;11.65;4.68;;;5.90;1.00;;;;;;7355709;19;20561;-60
2022/02/05 09:59:45;;;;;;;4.88;1.67;;;6.00;1.00;;;;;;7379745;19;20146;-60
2022/02/05 10:02:28;;;;;;;4.50;1.85;;;6.00;1.00;;;;;;7359555;19;20379;-62
2022/02/05 10:05:05;;;;;;;8.32;1.92;;;5.90;1.00;;;;;;7361749;19;20010;-60
2022/02/05 10:07:58;;;;;;;6.53;1.80;;;6.00;1.00;;;;;;7354301;19;20033;-58
2022/02/05 10:10:39;;;;;;;9.48;2.05;;;6.00;1.00;;;;;;7358758;19;20029;-60
2022/02/05 10:13:13;;;;;;;9.00;1.85;;;6.00;1.00;;;;;;7358559;19;20007;-61
2022/02/05 10:15:47;;;;;;;6.78;1.90;;;6.20;1.00;;;;;;7357444;19;20011;-59
2022/02/05 10:18:25;;;;;;;6.47;1.63;;;6.30;1.00;;;;;;7358941;19;20042;-59
2022/02/05 10:21:02;;;;;;;5.63;1.73;;;6.40;1.00;;;;;;7358929;19;20010;-59
2022/02/05 10:23:33;;;;;;;4.35;1.63;;;6.60;1.00;;;;;;7385241;19;20018;-60
2022/02/05 10:26:03;;;;;;;5.78;2.03;;;6.30;1.00;;;;;;7362075;19;20542;-61
2022/02/05 10:28:33;;;;;;;5.22;1.40;;;6.20;1.00;;;;;;7366438;19;20010;-60
2022/02/05 10:31:03;;;;;;;6.85;1.50;;;6.40;1.00;;;;;;7365794;19;20022;-61
2022/02/05 10:33:35;;;;;;;8.82;1.88;;;6.40;1.00;;;;;;7365960;19;20021;-60
2022/02/05 10:36:13;;;;;;;4.40;1.38;;;6.30;1.00;;;;;;7363588;19;20447;-59
2022/02/05 10:39:08;;;;;;;8.45;2.10;;;6.10;1.00;;;;;;7390482;19;20336;-60
2022/02/05 10:44:26;;;;;;;3.90;1.50;;;6.00;1.00;;;;;;7366523;19;20010;-59
2022/02/05 10:46:57;;;;;;;;;;;6.10;1.00;;;;;;7362931;19;20011;-59
2022/02/05 10:49:43;;;;;;;3.90;1.20;;;6.30;1.00;;;;;;7366851;19;19918;-60
2022/02/05 10:52:29;;;;;;;4.50;1.40;;;6.30;1.00;;;;;;7365047;19;20012;-61
2022/02/05 10:55:07;;;;;;;3.42;1.88;;;6.60;1.00;;;;;;7366342;19;20014;-59
2022/02/05 10:57:52;;;;;;;5.85;1.85;;;6.60;1.00;;;;;;7363739;19;20074;-60
2022/02/05 11:05:50;;;;;;;6.57;1.50;;;7.00;1.00;;;;;;7384038;19;20478;-59
2022/02/05 11:08:23;;;;;;;5.00;1.45;;;7.10;1.00;;;;;;7366723;19;20034;-60
2022/02/05 11:19:12;;;;;;;5.88;1.45;;;7.10;1.00;;;;;;7364480;19;20017;-59
2022/02/05 11:21:53;;;;;;;3.78;1.13;;;7.10;1.00;;;;;;7361964;19;20041;-59
2022/02/05 11:24:32;;;;;;;3.03;1.17;;;6.80;1.00;;;;;;7364237;19;20026;-59
2022/02/05 11:27:02;;;;;;;6.72;1.00;;;7.10;1.00;;;;;;7362822;19;20010;-59
2022/02/05 11:29:34;;;;;;;1.98;1.10;;;6.80;1.00;;;;;;7383315;19;20025;-60
2022/02/05 11:32:26;;;;;;;2.45;0.90;;;7.00;1.00;;;;;;7360948;19;20363;-59
2022/02/05 11:35:28;;;;;;;4.43;1.20;;;7.10;1.00;;;;;;7366342;19;20527;-59
2022/02/05 11:38:00;;;;;;;7.75;1.38;;;7.40;1.00;;;;;;7361811;19;20033;-59
2022/02/05 11:40:52;;;;;;;10.55;1.00;;;7.40;1.00;;;;;;7362449;19;20010;-59
2022/02/05 11:43:27;;;;;;;2.00;0.82;;;7.20;1.00;;;;;;7361916;19;20049;-59
2022/02/05 11:46:10;;;;;;;4.50;0.80;;;7.00;1.00;;;;;;7362392;19;20006;-59
2022/02/05 11:48:57;;;;;;;2.75;0.88;;;6.90;1.00;;;;;;7363947;19;20502;-59
2022/02/05 11:51:29;;;;;;;5.03;0.95;;;7.20;1.00;;;;;;7360782;19;20031;-59
2022/02/05 11:54:17;;;;;;;4.82;1.23;;;7.30;1.00;;;;;;7364770;19;20018;-60
2022/02/05 11:57:00;;;;;;;4.22;1.60;;;7.30;1.00;;;;;;7382674;19;20002;-60
2022/02/05 11:59:52;;;;;;;2.08;1.10;;;7.40;1.00;;;;;;7362818;19;20078;-59
2022/02/05 12:02:24;;;;;;;3.58;1.00;;;7.40;1.00;;;;;;7361623;19;20017;-59
2022/02/05 12:05:16;;;;;;;3.55;1.30;;;7.40;1.00;;;;;;7362783;19;20006;-60
2022/02/05 12:08:01;;;;;;;3.40;1.02;;;7.50;1.00;;;;;;7360585;19;20477;-60
2022/02/05 12:10:38;;;;;;;5.05;0.90;;;7.90;1.00;;;;;;7363371;19;20022;-59
2022/02/05 12:13:16;;;;;;;2.83;1.20;;;7.90;1.00;;;;;;7361259;19;20845;-60
2022/02/05 12:15:47;;;;;;;3.83;1.02;;;7.80;1.00;;;;;;7359466;19;20013;-59
2022/02/05 12:18:24;;;;;;;6.55;1.75;;;7.90;1.00;;;;;;7366026;19;20016;-59
2022/02/05 12:21:07;;;;;;;2.95;1.10;;;7.50;1.00;;;;;;7367604;19;20466;-60
2022/02/05 12:24:35;;;;;;;2.78;0.80;;;7.50;1.00;;;;;;7383773;19;20018;-59
2022/02/05 12:27:37;;;;;;;7.28;1.13;;;7.20;1.00;;;;;;7255344;19;2004464;-60
2022/02/05 12:30:40;;;;;;;4.63;1.10;;;7.20;1.00;;;;;;7362596;19;20019;-59
2022/02/05 12:33:12;;;;;;;5.22;1.33;;;6.90;1.00;;;;;;7364017;19;20025;-60
2022/02/05 12:35:53;;;;;;;5.97;1.23;;;6.90;1.00;;;;;;7379506;19;20081;-59
2022/02/05 12:38:24;;;;;;;4.57;1.13;;;7.20;1.00;;;;;;7362428;19;20669;-59
2022/02/05 12:40:54;;;;;;;4.78;1.40;;;7.40;1.00;;;;;;7364021;19;20014;-59
2022/02/05 12:43:30;;;;;;;3.75;1.48;;;7.50;1.00;;;;;;7362280;19;20006;-59
2022/02/05 12:46:09;;;;;;;3.03;0.95;;;7.40;1.00;;;;;;7358610;19;20025;-59
2022/02/05 12:48:40;;;;;;;6.22;1.13;;;7.20;1.00;;;;;;7362990;19;20006;-59
2022/02/05 12:51:10;;;;;;;6.70;1.75;;;7.10;1.00;;;;;;7362293;19;20081;-59
2022/02/05 12:53:41;;;;;;;6.85;1.45;;;7.10;1.00;;;;;;7382013;19;20014;-60
2022/02/05 12:56:15;;;;;;;7.35;3.33;;;7.30;1.00;;;;;;7358838;19;20079;-61
2022/02/05 12:59:02;;;;;;;4.53;1.63;;;7.20;1.00;;;;;;7363460;19;20023;-59
2022/02/05 13:01:32;;;;;;;2.40;1.10;;;7.10;1.00;;;;;;7359993;19;20010;-59
2022/02/05 13:04:15;;;;;;;4.75;1.42;;;7.20;1.00;;;;;;7362413;19;20011;-59
2022/02/05 13:06:46;;;;;;;2.67;1.15;;;7.20;1.00;;;;;;7359384;19;20040;-59
2022/02/05 13:09:21;;;;;;;3.05;1.70;;;7.20;1.00;;;;;;7360152;19;20021;-60
2022/02/05 13:11:58;;;;;;;2.85;1.35;;;7.40;1.00;;;;;;7379937;19;20011;-59
2022/02/05 13:14:44;;;;;;;3.85;1.40;;;7.20;1.00;;;;;;7363600;19;20030;-59
2022/02/05 13:17:53;;;;;;;4.80;1.48;;;7.00;1.00;;;;;;7358833;19;20010;-59
2022/02/05 13:29:15;;;;;;;5.72;1.67;;;6.90;1.00;;;;;;7361489;19;20066;-61
2022/02/05 13:34:35;;;;;;;2.60;0.93;;;7.00;1.00;;;;;;7361532;19;20039;-60
2022/02/05 13:37:14;;;;;;;5.70;1.60;;;7.10;1.00;;;;;;7357270;19;20010;-59
2022/02/05 13:40:00;;;;;;;3.80;1.30;;;7.30;1.00;;;;;;7360786;19;20126;-59
2022/02/05 13:42:35;;;;;;;4.80;1.42;;;7.40;1.00;;;;;;7357336;19;20718;-59
2022/02/05 13:45:17;;;;;;;5.03;1.92;;;7.30;1.00;;;;;;7361364;19;20446;-60
2022/02/05 13:47:56;;;;;;;3.38;1.48;;;7.30;1.00;;;;;;7380887;19;20018;-60
2022/02/05 13:50:28;;;;;;;3.38;1.13;;;7.20;1.00;;;;;;7360511;19;20003;-60
2022/02/05 13:53:03;;;;;;;5.43;1.63;;;7.30;1.00;;;;;;7358474;19;20014;-60
2022/02/05 13:55:34;;;;;;;6.55;1.55;;;7.20;1.00;;;;;;7359359;19;20080;-60
2022/02/05 13:58:07;;;;;;;4.97;1.50;;;7.20;1.00;;;;;;7355899;19;20534;-60
2022/02/05 14:00:43;;;;;;;1.98;1.20;;;7.30;1.00;;;;;;7364972;19;20011;-60
2022/02/05 14:03:16;;;;;;;4.75;1.48;;;7.30;1.00;;;;;;7366062;19;20162;-59
2022/02/05 14:06:05;;;;;;;4.78;1.38;;;7.50;1.00;;;;;;7383982;19;20027;-59
2022/02/05 14:08:37;;;;;;;3.88;1.50;;;7.40;1.00;;;;;;7366243;19;20611;-59
2022/02/05 14:11:09;;;;;;;5.75;1.55;;;7.40;1.00;;;;;;7365179;19;20106;-59
2022/02/05 14:13:39;;;;;;;3.70;1.42;;;7.30;1.00;;;;;;7366962;19;20518;-59
2022/02/05 14:16:11;;;;;;;4.85;1.35;;;7.40;1.00;;;;;;7362283;19;20493;-60
2022/02/05 14:18:53;;;;;;;3.78;1.15;;;7.40;1.00;;;;;;7367300;19;20007;-59
2022/02/05 14:21:34;;;;;;;2.50;1.48;;;7.30;1.00;;;;;;7365644;19;20023;-59
2022/02/05 14:24:06;;;;;;;4.82;1.60;;;7.40;1.00;;;;;;7366208;19;20006;-59
2022/02/05 14:26:41;;;;;;;5.40;1.20;;;7.30;1.00;;;;;;7385164;19;20428;-60
2022/02/05 14:29:11;;;;;;;4.05;1.30;;;7.30;1.00;;;;;;7366105;19;20372;-60
2022/02/05 14:31:47;;;;;;;5.18;1.27;;;7.30;1.00;;;;;;7362852;19;20158;-60
2022/02/05 14:34:33;;;;;;;3.55;1.08;;;7.40;1.00;;;;;;7368325;19;20014;-59
2022/02/05 14:42:32;;;;;;;5.38;1.40;;;7.40;1.00;;;;;;7360863;19;20010;-60
2022/02/05 14:45:03;;;;;;;2.22;0.90;;;7.30;1.00;;;;;;7366744;19;20018;-60
2022/02/05 14:47:33;;;;;;;3.33;1.08;;;7.20;1.00;;;;;;7383866;19;20369;-60
2022/02/05 14:50:06;;;;;;;3.33;1.45;;;7.20;1.00;;;;;;7362672;19;20021;-59
2022/02/05 14:52:36;;;;;;;1.77;0.90;;;7.20;1.00;;;;;;7360804;19;20014;-60
2022/02/05 14:55:07;;;;;;;3.22;1.17;;;7.20;1.00;;;;;;7368636;19;20015;-59
2022/02/05 14:57:37;;;;;;;6.43;1.33;;;7.20;1.00;;;;;;7359897;19;20090;-59
2022/02/05 15:00:09;;;;;;;4.60;1.17;;;7.20;1.00;;;;;;7361426;19;20025;-59
2022/02/05 15:02:38;;;;;;;3.78;1.50;;;7.20;1.00;;;;;;7385909;19;20023;-59
2022/02/05 15:05:12;;;;;;;5.35;0.95;;;7.10;1.00;;;;;;7366333;19;20030;-59
2022/02/05 15:07:42;;;;;;;5.32;1.20;;;7.10;1.00;;;;;;7359655;19;20018;-60
2022/02/05 15:10:14;;;;;;;3.03;1.25;;;7.10;1.00;;;;;;7362276;19;20431;-60
2022/02/05 15:12:45;;;;;;;4.47;1.13;;;7.10;1.00;;;;;;7362152;19;20007;-59
2022/02/05 15:15:19;;;;;;;3.90;0.82;;;7.10;1.00;;;;;;7364232;19;20058;-59
2022/02/05 15:17:49;;;;;;;;;;;7.00;1.00;;;;;;7383789;19;20347;-59
2022/02/05 15:20:22;;;;;;;3.10;1.13;;;7.00;1.00;;;;;;7364477;19;20336;-59
2022/02/05 15:22:54;;;;;;;2.85;1.13;;;7.00;1.00;;;;;;7360275;19;20466;-60
2022/02/05 15:25:23;;;;;;;2.47;0.80;;;7.00;1.00;;;;;;7364761;19;20471;-59
2022/02/05 15:27:53;;;;;;;5.32;1.08;;;7.00;1.00;;;;;;7362937;19;20046;-60
2022/02/05 15:30:28;;;;;;;4.75;2.35;;;7.00;1.00;;;;;;7363243;19;20021;-59
2022/02/05 15:32:58;;;;;;;3.28;1.02;;;6.90;1.00;;;;;;7361336;19;20078;-61
2022/02/05 15:35:32;;;;;;;5.55;2.92;;;6.90;1.00;;;;;;7387333;19;20018;-60
2022/02/05 15:38:09;;;;;;;5.57;1.70;;;6.90;1.00;;;;;;7359595;19;20366;-60
2022/02/05 15:43:41;;;;;;;5.60;0.95;;;6.80;1.00;;;;;;7363017;19;20030;-60
2022/02/05 15:46:14;;;;;;;2.80;0.80;;;6.80;1.00;;;;;;7360516;19;20462;-59
2022/02/05 15:48:44;;;;;;;3.90;1.48;;;6.70;1.00;;;;;;7361445;19;20014;-60
2022/02/05 15:51:17;;;;;;;5.95;1.20;;;6.70;1.00;;;;;;7359707;19;20000;-60
2022/02/05 15:53:51;;;;;;;3.13;1.48;;;6.70;1.00;;;;;;7388801;19;20064;-59